sensor_id;sensor_type;location;lat;lon;timestamp;temperature;humidity
57709;SHT35;42558;52.388;13.390;2022-07-22T00:00:52;20.29;80.13
57709;SHT35;42558;52.388;13.390;2022-07-22T00:03:19;20.07;81.01
57709;SHT35;42558;52.388;13.390;2022-07-22T00:05:46;19.87;82.31
57709;SHT35;42558;52.388;13.390;2022-07-22T00:08:13;20.00;81.96
57709;SHT35;42558;52.388;13.390;2022-07-22T00:10:40;20.14;80.88
57709;SHT35;42558;52.388;13.390;2022-07-22T00:13:07;20.31;80.17
57709;SHT35;42558;52.388;13.390;2022-07-22T00:15:34;20.40;79.88
57709;SHT35;42558;52.388;13.390;2022-07-22T00:18:02;20.32;80.14
57709;SHT35;42558;52.388;13.390;2022-07-22T00:20:29;20.29;80.13
57709;SHT35;42558;52.388;13.390;2022-07-22T00:22:56;20.40;79.75
57709;SHT35;42558;52.388;13.390;2022-07-22T00:25:23;20.44;79.47
57709;SHT35;42558;52.388;13.390;2022-07-22T00:27:50;20.44;79.42
57709;SHT35;42558;52.388;13.390;2022-07-22T00:30:17;20.50;79.20
57709;SHT35;42558;52.388;13.390;2022-07-22T00:32:44;20.47;79.31
57709;SHT35;42558;52.388;13.390;2022-07-22T00:35:11;20.24;80.24
57709;SHT35;42558;52.388;13.390;2022-07-22T00:37:38;20.15;80.59
57709;SHT35;42558;52.388;13.390;2022-07-22T00:40:05;20.01;80.30
57709;SHT35;42558;52.388;13.390;2022-07-22T00:42:32;20.01;80.74
57709;SHT35;42558;52.388;13.390;2022-07-22T00:45:01;20.11;80.72
57709;SHT35;42558;52.388;13.390;2022-07-22T00:47:30;20.24;79.89
57709;SHT35;42558;52.388;13.390;2022-07-22T00:49:57;20.29;79.88
57709;SHT35;42558;52.388;13.390;2022-07-22T01:00:53;20.10;79.87
57709;SHT35;42558;52.388;13.390;2022-07-22T01:03:20;20.01;80.55
57709;SHT35;42558;52.388;13.390;2022-07-22T01:05:47;19.86;80.70
57709;SHT35;42558;52.388;13.390;2022-07-22T01:08:14;19.86;80.48
57709;SHT35;42558;52.388;13.390;2022-07-22T01:10:41;19.77;80.36
57709;SHT35;42558;52.388;13.390;2022-07-22T01:13:08;19.68;80.47
57709;SHT35;42558;52.388;13.390;2022-07-22T01:15:35;19.60;80.67
57709;SHT35;42558;52.388;13.390;2022-07-22T01:18:02;19.64;81.16
57709;SHT35;42558;52.388;13.390;2022-07-22T01:20:29;19.73;80.86
57709;SHT35;42558;52.388;13.390;2022-07-22T01:22:56;19.81;80.33
57709;SHT35;42558;52.388;13.390;2022-07-22T01:25:23;19.62;80.52
57709;SHT35;42558;52.388;13.390;2022-07-22T01:27:51;19.50;80.85
57709;SHT35;42558;52.388;13.390;2022-07-22T01:30:18;19.42;80.99
57709;SHT35;42558;52.388;13.390;2022-07-22T01:32:45;19.34;81.27
57709;SHT35;42558;52.388;13.390;2022-07-22T01:35:12;19.34;81.38
57709;SHT35;42558;52.388;13.390;2022-07-22T01:37:38;19.50;80.84
57709;SHT35;42558;52.388;13.390;2022-07-22T01:40:05;19.51;80.59
57709;SHT35;42558;52.388;13.390;2022-07-22T01:42:33;19.42;80.77
57709;SHT35;42558;52.388;13.390;2022-07-22T01:45:00;19.33;81.25
57709;SHT35;42558;52.388;13.390;2022-07-22T01:47:26;19.22;81.90
57709;SHT35;42558;52.388;13.390;2022-07-22T01:49:53;19.16;82.09
57709;SHT35;42558;52.388;13.390;2022-07-22T01:52:20;19.13;82.13
57709;SHT35;42558;52.388;13.390;2022-07-22T01:54:47;19.09;82.21
57709;SHT35;42558;52.388;13.390;2022-07-22T01:57:14;19.07;82.36
57709;SHT35;42558;52.388;13.390;2022-07-22T01:59:40;19.03;82.63
57709;SHT35;42558;52.388;13.390;2022-07-22T02:02:07;18.96;82.84
57709;SHT35;42558;52.388;13.390;2022-07-22T02:04:34;19.03;82.39
57709;SHT35;42558;52.388;13.390;2022-07-22T02:07:01;18.96;82.58
57709;SHT35;42558;52.388;13.390;2022-07-22T02:09:28;18.92;82.89
57709;SHT35;42558;52.388;13.390;2022-07-22T02:11:55;18.86;82.90
57709;SHT35;42558;52.388;13.390;2022-07-22T02:14:22;18.82;83.06
57709;SHT35;42558;52.388;13.390;2022-07-22T02:16:49;18.84;82.98
57709;SHT35;42558;52.388;13.390;2022-07-22T02:19:16;18.81;83.02
57709;SHT35;42558;52.388;13.390;2022-07-22T02:21:43;18.78;83.11
57709;SHT35;42558;52.388;13.390;2022-07-22T02:24:10;18.83;82.90
57709;SHT35;42558;52.388;13.390;2022-07-22T02:26:37;18.87;82.65
57709;SHT35;42558;52.388;13.390;2022-07-22T02:29:04;18.85;82.66
57709;SHT35;42558;52.388;13.390;2022-07-22T02:31:31;18.83;82.78
57709;SHT35;42558;52.388;13.390;2022-07-22T02:33:58;18.81;82.73
57709;SHT35;42558;52.388;13.390;2022-07-22T02:36:25;18.81;82.80
57709;SHT35;42558;52.388;13.390;2022-07-22T02:38:52;18.78;82.89
57709;SHT35;42558;52.388;13.390;2022-07-22T02:41:20;18.74;83.16
57709;SHT35;42558;52.388;13.390;2022-07-22T02:43:47;18.82;82.95
57709;SHT35;42558;52.388;13.390;2022-07-22T02:46:14;18.94;82.02
57709;SHT35;42558;52.388;13.390;2022-07-22T02:48:41;18.96;81.68
57709;SHT35;42558;52.388;13.390;2022-07-22T02:51:08;18.83;82.05
57709;SHT35;42558;52.388;13.390;2022-07-22T02:53:35;18.74;82.47
57709;SHT35;42558;52.388;13.390;2022-07-22T02:56:01;18.69;82.78
57709;SHT35;42558;52.388;13.390;2022-07-22T02:58:28;18.75;82.39
57709;SHT35;42558;52.388;13.390;2022-07-22T03:00:55;18.74;82.22
57709;SHT35;42558;52.388;13.390;2022-07-22T03:03:22;18.67;82.60
57709;SHT35;42558;52.388;13.390;2022-07-22T03:05:50;18.70;82.81
57709;SHT35;42558;52.388;13.390;2022-07-22T03:08:17;18.83;82.06
57709;SHT35;42558;52.388;13.390;2022-07-22T03:10:44;18.97;81.36
57709;SHT35;42558;52.388;13.390;2022-07-22T03:13:11;19.03;80.89
57709;SHT35;42558;52.388;13.390;2022-07-22T03:15:38;19.06;80.59
57709;SHT35;42558;52.388;13.390;2022-07-22T03:18:04;18.99;80.83
57709;SHT35;42558;52.388;13.390;2022-07-22T03:20:31;18.92;81.12
57709;SHT35;42558;52.388;13.390;2022-07-22T03:22:59;18.85;81.53
57709;SHT35;42558;52.388;13.390;2022-07-22T03:25:26;18.95;81.13
57709;SHT35;42558;52.388;13.390;2022-07-22T03:27:53;19.05;80.49
57709;SHT35;42558;52.388;13.390;2022-07-22T03:30:20;19.06;80.35
57709;SHT35;42558;52.388;13.390;2022-07-22T03:32:47;19.07;80.04
57709;SHT35;42558;52.388;13.390;2022-07-22T03:35:17;19.05;80.16
57709;SHT35;42558;52.388;13.390;2022-07-22T03:37:44;18.92;80.69
57709;SHT35;42558;52.388;13.390;2022-07-22T03:40:11;18.89;81.00
57709;SHT35;42558;52.388;13.390;2022-07-22T03:42:38;18.81;81.10
57709;SHT35;42558;52.388;13.390;2022-07-22T03:45:11;18.74;81.60
57709;SHT35;42558;52.388;13.390;2022-07-22T03:47:38;18.87;80.80
57709;SHT35;42558;52.388;13.390;2022-07-22T03:50:05;18.87;80.64
57709;SHT35;42558;52.388;13.390;2022-07-22T03:52:33;18.93;80.45
57709;SHT35;42558;52.388;13.390;2022-07-22T03:54:59;18.98;80.14
57709;SHT35;42558;52.388;13.390;2022-07-22T03:57:26;19.11;79.90
57709;SHT35;42558;52.388;13.390;2022-07-22T03:59:55;19.16;79.79
57709;SHT35;42558;52.388;13.390;2022-07-22T04:02:22;19.14;80.29
57709;SHT35;42558;52.388;13.390;2022-07-22T04:04:49;19.10;80.53
57709;SHT35;42558;52.388;13.390;2022-07-22T04:07:15;18.99;81.03
57709;SHT35;42558;52.388;13.390;2022-07-22T04:09:42;19.00;81.18
57709;SHT35;42558;52.388;13.390;2022-07-22T04:12:09;18.96;81.49
57709;SHT35;42558;52.388;13.390;2022-07-22T04:14:40;18.90;81.90
57709;SHT35;42558;52.388;13.390;2022-07-22T04:17:06;18.87;82.31
57709;SHT35;42558;52.388;13.390;2022-07-22T04:19:41;18.96;82.22
57709;SHT35;42558;52.388;13.390;2022-07-22T04:22:07;19.14;81.65
57709;SHT35;42558;52.388;13.390;2022-07-22T04:24:34;19.08;81.78
57709;SHT35;42558;52.388;13.390;2022-07-22T04:27:01;19.05;82.12
57709;SHT35;42558;52.388;13.390;2022-07-22T04:29:27;19.21;82.04
57709;SHT35;42558;52.388;13.390;2022-07-22T04:31:54;19.29;81.84
57709;SHT35;42558;52.388;13.390;2022-07-22T04:34:27;19.30;81.79
57709;SHT35;42558;52.388;13.390;2022-07-22T04:36:54;19.33;81.77
57709;SHT35;42558;52.388;13.390;2022-07-22T04:39:21;19.27;82.45
57709;SHT35;42558;52.388;13.390;2022-07-22T04:41:48;19.32;82.35
57709;SHT35;42558;52.388;13.390;2022-07-22T04:44:14;19.30;82.24
57709;SHT35;42558;52.388;13.390;2022-07-22T04:46:41;19.27;82.61
57709;SHT35;42558;52.388;13.390;2022-07-22T04:49:08;19.23;82.28
57709;SHT35;42558;52.388;13.390;2022-07-22T04:51:35;19.26;82.30
57709;SHT35;42558;52.388;13.390;2022-07-22T04:54:01;19.28;81.97
57709;SHT35;42558;52.388;13.390;2022-07-22T04:56:30;19.21;82.28
57709;SHT35;42558;52.388;13.390;2022-07-22T04:58:57;19.21;82.95
57709;SHT35;42558;52.388;13.390;2022-07-22T05:01:25;19.20;82.68
57709;SHT35;42558;52.388;13.390;2022-07-22T05:03:52;19.16;82.63
57709;SHT35;42558;52.388;13.390;2022-07-22T05:06:19;19.15;82.87
57709;SHT35;42558;52.388;13.390;2022-07-22T05:08:46;19.15;83.39
57709;SHT35;42558;52.388;13.390;2022-07-22T05:11:13;19.21;83.05
57709;SHT35;42558;52.388;13.390;2022-07-22T05:13:40;19.29;82.55
57709;SHT35;42558;52.388;13.390;2022-07-22T05:16:07;19.33;82.73
57709;SHT35;42558;52.388;13.390;2022-07-22T05:18:34;19.37;82.66
57709;SHT35;42558;52.388;13.390;2022-07-22T05:21:01;19.45;82.10
57709;SHT35;42558;52.388;13.390;2022-07-22T05:23:31;19.45;82.13
57709;SHT35;42558;52.388;13.390;2022-07-22T05:25:58;19.37;82.50
57709;SHT35;42558;52.388;13.390;2022-07-22T05:28:25;19.39;82.33
57709;SHT35;42558;52.388;13.390;2022-07-22T05:30:52;19.44;81.99
57709;SHT35;42558;52.388;13.390;2022-07-22T05:33:18;19.48;81.74
57709;SHT35;42558;52.388;13.390;2022-07-22T05:35:45;19.52;81.76
57709;SHT35;42558;52.388;13.390;2022-07-22T05:38:13;19.49;81.94
57709;SHT35;42558;52.388;13.390;2022-07-22T05:40:40;19.51;82.17
57709;SHT35;42558;52.388;13.390;2022-07-22T05:43:07;19.57;81.94
57709;SHT35;42558;52.388;13.390;2022-07-22T05:45:34;19.48;81.76
57709;SHT35;42558;52.388;13.390;2022-07-22T05:48:01;19.43;81.90
57709;SHT35;42558;52.388;13.390;2022-07-22T05:50:27;19.48;82.33
57709;SHT35;42558;52.388;13.390;2022-07-22T05:52:54;19.55;81.93
57709;SHT35;42558;52.388;13.390;2022-07-22T05:55:21;19.60;81.46
57709;SHT35;42558;52.388;13.390;2022-07-22T05:57:48;19.63;81.04
57709;SHT35;42558;52.388;13.390;2022-07-22T06:00:15;19.72;81.17
57709;SHT35;42558;52.388;13.390;2022-07-22T06:02:42;19.78;80.85
57709;SHT35;42558;52.388;13.390;2022-07-22T06:05:09;19.87;80.61
57709;SHT35;42558;52.388;13.390;2022-07-22T06:07:39;19.84;80.52
57709;SHT35;42558;52.388;13.390;2022-07-22T06:10:06;19.83;80.13
57709;SHT35;42558;52.388;13.390;2022-07-22T06:12:34;19.83;80.26
57709;SHT35;42558;52.388;13.390;2022-07-22T06:15:00;19.91;80.28
57709;SHT35;42558;52.388;13.390;2022-07-22T06:17:28;19.92;80.34
57709;SHT35;42558;52.388;13.390;2022-07-22T06:19:54;19.99;79.98
57709;SHT35;42558;52.388;13.390;2022-07-22T06:22:21;20.02;79.88
57709;SHT35;42558;52.388;13.390;2022-07-22T06:24:48;20.01;79.43
57709;SHT35;42558;52.388;13.390;2022-07-22T06:27:15;20.03;79.01
57709;SHT35;42558;52.388;13.390;2022-07-22T06:29:42;19.96;78.91
57709;SHT35;42558;52.388;13.390;2022-07-22T06:32:09;19.96;78.97
57709;SHT35;42558;52.388;13.390;2022-07-22T06:34:36;20.01;79.00
57709;SHT35;42558;52.388;13.390;2022-07-22T06:37:03;20.08;78.75
57709;SHT35;42558;52.388;13.390;2022-07-22T06:39:29;20.15;78.41
57709;SHT35;42558;52.388;13.390;2022-07-22T06:41:56;20.25;78.30
57709;SHT35;42558;52.388;13.390;2022-07-22T06:44:23;20.30;77.94
57709;SHT35;42558;52.388;13.390;2022-07-22T06:46:50;20.36;77.72
57709;SHT35;42558;52.388;13.390;2022-07-22T06:49:18;20.51;78.06
57709;SHT35;42558;52.388;13.390;2022-07-22T06:51:45;20.70;77.76
57709;SHT35;42558;52.388;13.390;2022-07-22T06:54:12;20.89;77.09
57709;SHT35;42558;52.388;13.390;2022-07-22T06:56:38;21.06;76.82
57709;SHT35;42558;52.388;13.390;2022-07-22T06:59:05;21.04;75.72
57709;SHT35;42558;52.388;13.390;2022-07-22T07:01:32;21.00;75.23
57709;SHT35;42558;52.388;13.390;2022-07-22T07:03:59;20.97;75.41
57709;SHT35;42558;52.388;13.390;2022-07-22T07:06:27;20.97;75.17
57709;SHT35;42558;52.388;13.390;2022-07-22T07:08:54;21.09;75.82
57709;SHT35;42558;52.388;13.390;2022-07-22T07:11:23;21.09;75.18
57709;SHT35;42558;52.388;13.390;2022-07-22T07:13:50;21.14;75.60
57709;SHT35;42558;52.388;13.390;2022-07-22T07:16:18;21.28;75.77
57709;SHT35;42558;52.388;13.390;2022-07-22T07:18:44;21.39;74.34
57709;SHT35;42558;52.388;13.390;2022-07-22T07:21:12;21.44;73.86
57709;SHT35;42558;52.388;13.390;2022-07-22T07:23:39;21.85;74.29
57709;SHT35;42558;52.388;13.390;2022-07-22T07:26:06;22.38;72.01
57709;SHT35;42558;52.388;13.390;2022-07-22T07:28:33;22.50;71.89
57709;SHT35;42558;52.388;13.390;2022-07-22T07:31:00;22.15;71.45
57709;SHT35;42558;52.388;13.390;2022-07-22T07:33:27;22.14;71.99
57709;SHT35;42558;52.388;13.390;2022-07-22T07:35:54;22.21;71.85
57709;SHT35;42558;52.388;13.390;2022-07-22T07:38:21;22.56;70.19
57709;SHT35;42558;52.388;13.390;2022-07-22T07:40:48;22.61;70.04
57709;SHT35;42558;52.388;13.390;2022-07-22T07:43:15;23.09;69.41
57709;SHT35;42558;52.388;13.390;2022-07-22T07:45:42;23.23;67.81
57709;SHT35;42558;52.388;13.390;2022-07-22T07:48:09;23.18;67.41
57709;SHT35;42558;52.388;13.390;2022-07-22T07:50:36;23.04;67.97
57709;SHT35;42558;52.388;13.390;2022-07-22T07:53:04;23.57;67.40
57709;SHT35;42558;52.388;13.390;2022-07-22T07:55:33;23.90;67.04
57709;SHT35;42558;52.388;13.390;2022-07-22T07:58:04;23.76;65.93
57709;SHT35;42558;52.388;13.390;2022-07-22T08:00:32;23.50;65.47
57709;SHT35;42558;52.388;13.390;2022-07-22T08:03:01;23.20;67.11
57709;SHT35;42558;52.388;13.390;2022-07-22T08:05:32;23.33;66.82
57709;SHT35;42558;52.388;13.390;2022-07-22T08:08:01;23.45;65.59
57709;SHT35;42558;52.388;13.390;2022-07-22T08:10:36;23.36;64.98
57709;SHT35;42558;52.388;13.390;2022-07-22T08:13:23;23.16;65.23
57709;SHT35;42558;52.388;13.390;2022-07-22T08:15:51;22.98;65.98
57709;SHT35;42558;52.388;13.390;2022-07-22T08:18:19;22.94;66.28
57709;SHT35;42558;52.388;13.390;2022-07-22T08:20:45;22.81;66.88
57709;SHT35;42558;52.388;13.390;2022-07-22T08:23:12;23.02;66.58
57709;SHT35;42558;52.388;13.390;2022-07-22T08:25:39;23.50;66.16
57709;SHT35;42558;52.388;13.390;2022-07-22T08:28:06;23.97;63.58
57709;SHT35;42558;52.388;13.390;2022-07-22T08:30:33;23.55;64.23
57709;SHT35;42558;52.388;13.390;2022-07-22T08:33:00;23.67;64.70
57709;SHT35;42558;52.388;13.390;2022-07-22T08:35:27;24.55;63.48
57709;SHT35;42558;52.388;13.390;2022-07-22T08:37:53;24.79;61.94
57709;SHT35;42558;52.388;13.390;2022-07-22T08:40:20;24.14;62.19
57709;SHT35;42558;52.388;13.390;2022-07-22T08:42:48;23.68;63.11
57709;SHT35;42558;52.388;13.390;2022-07-22T08:45:17;23.38;63.83
57709;SHT35;42558;52.388;13.390;2022-07-22T08:47:46;23.35;63.57
57709;SHT35;42558;52.388;13.390;2022-07-22T08:50:17;23.74;63.05
57709;SHT35;42558;52.388;13.390;2022-07-22T08:52:47;24.07;62.23
57709;SHT35;42558;52.388;13.390;2022-07-22T08:55:14;24.22;61.46
57709;SHT35;42558;52.388;13.390;2022-07-22T08:57:49;24.16;61.42
57709;SHT35;42558;52.388;13.390;2022-07-22T09:00:19;24.28;60.79
57709;SHT35;42558;52.388;13.390;2022-07-22T09:02:48;24.62;60.38
57709;SHT35;42558;52.388;13.390;2022-07-22T09:05:16;24.26;60.42
57709;SHT35;42558;52.388;13.390;2022-07-22T09:08:04;24.26;61.05
57709;SHT35;42558;52.388;13.390;2022-07-22T09:10:32;24.25;60.04
57709;SHT35;42558;52.388;13.390;2022-07-22T09:13:02;24.13;60.06
57709;SHT35;42558;52.388;13.390;2022-07-22T09:15:53;24.01;60.32
57709;SHT35;42558;52.388;13.390;2022-07-22T09:18:21;24.18;61.20
57709;SHT35;42558;52.388;13.390;2022-07-22T09:20:48;24.16;59.70
57709;SHT35;42558;52.388;13.390;2022-07-22T09:23:16;24.34;60.59
57709;SHT35;42558;52.388;13.390;2022-07-22T09:25:48;24.37;60.69
57709;SHT35;42558;52.388;13.390;2022-07-22T09:28:20;24.34;59.52
57709;SHT35;42558;52.388;13.390;2022-07-22T09:30:53;24.23;59.87
57709;SHT35;42558;52.388;13.390;2022-07-22T09:33:24;23.81;60.49
57709;SHT35;42558;52.388;13.390;2022-07-22T09:35:52;23.72;60.79
57709;SHT35;42558;52.388;13.390;2022-07-22T09:38:30;23.45;62.20
57709;SHT35;42558;52.388;13.390;2022-07-22T09:40:59;23.23;63.45
57709;SHT35;42558;52.388;13.390;2022-07-22T09:43:26;22.97;65.12
57709;SHT35;42558;52.388;13.390;2022-07-22T09:45:59;22.85;65.56
57709;SHT35;42558;52.388;13.390;2022-07-22T09:48:26;22.68;66.38
57709;SHT35;42558;52.388;13.390;2022-07-22T09:50:54;22.65;67.13
57709;SHT35;42558;52.388;13.390;2022-07-22T09:53:24;22.56;68.03
57709;SHT35;42558;52.388;13.390;2022-07-22T09:55:56;22.34;68.92
57709;SHT35;42558;52.388;13.390;2022-07-22T09:58:25;22.37;69.35
57709;SHT35;42558;52.388;13.390;2022-07-22T10:00:54;22.26;69.78
57709;SHT35;42558;52.388;13.390;2022-07-22T10:03:30;22.43;69.61
57709;SHT35;42558;52.388;13.390;2022-07-22T10:06:04;22.61;69.13
57709;SHT35;42558;52.388;13.390;2022-07-22T10:08:32;22.84;68.62
57709;SHT35;42558;52.388;13.390;2022-07-22T10:11:01;22.77;67.33
57709;SHT35;42558;52.388;13.390;2022-07-22T10:13:31;22.74;67.65
57709;SHT35;42558;52.388;13.390;2022-07-22T10:16:01;22.73;67.40
57709;SHT35;42558;52.388;13.390;2022-07-22T10:18:29;22.84;67.32
57709;SHT35;42558;52.388;13.390;2022-07-22T10:21:07;22.96;67.26
57709;SHT35;42558;52.388;13.390;2022-07-22T10:23:36;23.01;66.89
57709;SHT35;42558;52.388;13.390;2022-07-22T10:26:53;23.40;66.50
57709;SHT35;42558;52.388;13.390;2022-07-22T10:29:38;23.50;65.10
57709;SHT35;42558;52.388;13.390;2022-07-22T10:34:42;23.49;65.15
57709;SHT35;42558;52.388;13.390;2022-07-22T10:37:49;23.64;64.74
57709;SHT35;42558;52.388;13.390;2022-07-22T10:45:24;23.79;64.35
57709;SHT35;42558;52.388;13.390;2022-07-22T10:47:54;24.04;63.91
57709;SHT35;42558;52.388;13.390;2022-07-22T10:53:04;24.69;62.43
57709;SHT35;42558;52.388;13.390;2022-07-22T10:55:38;24.63;60.51
57709;SHT35;42558;52.388;13.390;2022-07-22T11:01:01;24.44;61.72
57709;SHT35;42558;52.388;13.390;2022-07-22T11:03:33;24.66;61.20
57709;SHT35;42558;52.388;13.390;2022-07-22T11:06:19;24.54;61.12
57709;SHT35;42558;52.388;13.390;2022-07-22T11:09:00;24.65;61.66
57709;SHT35;42558;52.388;13.390;2022-07-22T11:11:34;24.59;61.21
57709;SHT35;42558;52.388;13.390;2022-07-22T11:14:18;24.40;61.46
57709;SHT35;42558;52.388;13.390;2022-07-22T11:16:58;24.35;62.16
57709;SHT35;42558;52.388;13.390;2022-07-22T11:19:31;24.14;63.32
57709;SHT35;42558;52.388;13.390;2022-07-22T11:22:00;24.08;63.40
57709;SHT35;42558;52.388;13.390;2022-07-22T11:24:48;23.72;63.84
57709;SHT35;42558;52.388;13.390;2022-07-22T11:27:17;23.48;64.59
57709;SHT35;42558;52.388;13.390;2022-07-22T11:29:50;23.38;64.97
57709;SHT35;42558;52.388;13.390;2022-07-22T11:32:21;23.33;64.71
57709;SHT35;42558;52.388;13.390;2022-07-22T11:34:55;23.46;65.04
57709;SHT35;42558;52.388;13.390;2022-07-22T11:37:22;23.70;64.30
57709;SHT35;42558;52.388;13.390;2022-07-22T11:39:51;23.88;64.73
57709;SHT35;42558;52.388;13.390;2022-07-22T11:42:25;24.25;63.54
57709;SHT35;42558;52.388;13.390;2022-07-22T11:44:53;24.29;62.85
57709;SHT35;42558;52.388;13.390;2022-07-22T11:47:20;24.41;62.83
57709;SHT35;42558;52.388;13.390;2022-07-22T11:49:47;24.41;62.27
57709;SHT35;42558;52.388;13.390;2022-07-22T11:52:14;24.49;62.79
57709;SHT35;42558;52.388;13.390;2022-07-22T11:54:42;24.58;62.31
57709;SHT35;42558;52.388;13.390;2022-07-22T11:57:11;24.68;62.29
57709;SHT35;42558;52.388;13.390;2022-07-22T11:59:40;24.56;62.34
57709;SHT35;42558;52.388;13.390;2022-07-22T12:02:08;24.50;62.61
57709;SHT35;42558;52.388;13.390;2022-07-22T12:04:40;24.57;62.43
57709;SHT35;42558;52.388;13.390;2022-07-22T12:07:10;24.56;61.42
57709;SHT35;42558;52.388;13.390;2022-07-22T12:09:38;24.48;62.22
57709;SHT35;42558;52.388;13.390;2022-07-22T12:12:09;24.47;62.74
57709;SHT35;42558;52.388;13.390;2022-07-22T12:14:44;24.52;62.21
57709;SHT35;42558;52.388;13.390;2022-07-22T12:17:15;24.38;62.33
57709;SHT35;42558;52.388;13.390;2022-07-22T12:19:43;24.18;62.47
57709;SHT35;42558;52.388;13.390;2022-07-22T12:22:10;24.22;62.56
57709;SHT35;42558;52.388;13.390;2022-07-22T12:24:46;24.37;62.16
57709;SHT35;42558;52.388;13.390;2022-07-22T12:27:25;24.45;61.78
57709;SHT35;42558;52.388;13.390;2022-07-22T12:29:52;24.61;61.38
57709;SHT35;42558;52.388;13.390;2022-07-22T12:35:02;24.67;60.81
57709;SHT35;42558;52.388;13.390;2022-07-22T12:37:34;24.85;59.77
57709;SHT35;42558;52.388;13.390;2022-07-22T12:40:11;24.70;60.02
57709;SHT35;42558;52.388;13.390;2022-07-22T12:42:46;24.72;60.70
57709;SHT35;42558;52.388;13.390;2022-07-22T12:45:35;24.73;60.08
57709;SHT35;42558;52.388;13.390;2022-07-22T12:48:06;24.67;59.54
57709;SHT35;42558;52.388;13.390;2022-07-22T12:53:24;24.51;59.92
57709;SHT35;42558;52.388;13.390;2022-07-22T12:55:56;24.66;60.03
57709;SHT35;42558;52.388;13.390;2022-07-22T12:58:27;24.71;59.73
57709;SHT35;42558;52.388;13.390;2022-07-22T13:00:57;24.69;59.67
57709;SHT35;42558;52.388;13.390;2022-07-22T13:03:27;24.49;59.99
57709;SHT35;42558;52.388;13.390;2022-07-22T13:05:58;24.69;60.03
57709;SHT35;42558;52.388;13.390;2022-07-22T13:08:28;25.01;59.32
57709;SHT35;42558;52.388;13.390;2022-07-22T13:11:11;25.01;58.87
57709;SHT35;42558;52.388;13.390;2022-07-22T13:13:40;24.91;59.11
57709;SHT35;42558;52.388;13.390;2022-07-22T13:16:09;24.99;59.52
57709;SHT35;42558;52.388;13.390;2022-07-22T13:18:37;24.87;60.18
57709;SHT35;42558;52.388;13.390;2022-07-22T13:21:04;24.88;60.29
57709;SHT35;42558;52.388;13.390;2022-07-22T13:23:31;24.67;59.81
57709;SHT35;42558;52.388;13.390;2022-07-22T13:25:58;24.65;60.40
57709;SHT35;42558;52.388;13.390;2022-07-22T13:28:25;24.91;59.75
57709;SHT35;42558;52.388;13.390;2022-07-22T13:30:52;24.87;59.67
57709;SHT35;42558;52.388;13.390;2022-07-22T13:33:18;24.65;60.30
57709;SHT35;42558;52.388;13.390;2022-07-22T13:35:45;24.59;60.23
57709;SHT35;42558;52.388;13.390;2022-07-22T13:38:12;24.54;60.47
57709;SHT35;42558;52.388;13.390;2022-07-22T13:40:44;24.58;60.36
57709;SHT35;42558;52.388;13.390;2022-07-22T13:43:21;24.86;60.46
57709;SHT35;42558;52.388;13.390;2022-07-22T13:45:51;24.89;59.11
57709;SHT35;42558;52.388;13.390;2022-07-22T13:48:19;24.67;59.67
57709;SHT35;42558;52.388;13.390;2022-07-22T13:50:47;24.84;59.42
57709;SHT35;42558;52.388;13.390;2022-07-22T13:53:14;24.76;58.77
57709;SHT35;42558;52.388;13.390;2022-07-22T13:55:41;24.66;59.07
57709;SHT35;42558;52.388;13.390;2022-07-22T13:58:08;24.85;59.19
57709;SHT35;42558;52.388;13.390;2022-07-22T14:00:35;24.96;58.13
57709;SHT35;42558;52.388;13.390;2022-07-22T14:03:04;24.94;58.48
57709;SHT35;42558;52.388;13.390;2022-07-22T14:05:32;24.97;58.39
57709;SHT35;42558;52.388;13.390;2022-07-22T14:07:59;25.08;58.38
57709;SHT35;42558;52.388;13.390;2022-07-22T14:10:26;25.24;57.65
57709;SHT35;42558;52.388;13.390;2022-07-22T14:12:53;25.39;57.79
57709;SHT35;42558;52.388;13.390;2022-07-22T14:15:19;25.36;56.69
57709;SHT35;42558;52.388;13.390;2022-07-22T14:17:47;25.41;56.33
57709;SHT35;42558;52.388;13.390;2022-07-22T14:20:14;25.11;56.38
57709;SHT35;42558;52.388;13.390;2022-07-22T14:22:41;24.87;56.79
57709;SHT35;42558;52.388;13.390;2022-07-22T14:25:08;24.75;56.86
57709;SHT35;42558;52.388;13.390;2022-07-22T14:27:35;24.81;57.53
57709;SHT35;42558;52.388;13.390;2022-07-22T14:30:02;25.23;56.39
57709;SHT35;42558;52.388;13.390;2022-07-22T14:32:30;25.44;56.15
57709;SHT35;42558;52.388;13.390;2022-07-22T14:34:57;25.57;55.06
57709;SHT35;42558;52.388;13.390;2022-07-22T14:37:24;25.53;54.91
57709;SHT35;42558;52.388;13.390;2022-07-22T14:39:53;25.41;55.05
57709;SHT35;42558;52.388;13.390;2022-07-22T14:42:21;25.39;55.09
57709;SHT35;42558;52.388;13.390;2022-07-22T14:44:48;25.66;55.08
57709;SHT35;42558;52.388;13.390;2022-07-22T14:47:15;25.83;54.65
57709;SHT35;42558;52.388;13.390;2022-07-22T14:49:42;26.01;54.28
57709;SHT35;42558;52.388;13.390;2022-07-22T14:52:09;25.64;53.53
57709;SHT35;42558;52.388;13.390;2022-07-22T14:54:36;25.46;54.27
57709;SHT35;42558;52.388;13.390;2022-07-22T14:57:03;25.42;54.20
57709;SHT35;42558;52.388;13.390;2022-07-22T14:59:29;25.60;53.80
57709;SHT35;42558;52.388;13.390;2022-07-22T15:01:56;25.99;53.91
57709;SHT35;42558;52.388;13.390;2022-07-22T15:04:23;26.31;53.18
57709;SHT35;42558;52.388;13.390;2022-07-22T15:06:50;26.49;52.42
57709;SHT35;42558;52.388;13.390;2022-07-22T15:09:17;25.88;54.27
57709;SHT35;42558;52.388;13.390;2022-07-22T15:11:44;26.01;54.50
57709;SHT35;42558;52.388;13.390;2022-07-22T15:14:10;25.82;54.57
57709;SHT35;42558;52.388;13.390;2022-07-22T15:16:37;25.81;54.82
57709;SHT35;42558;52.388;13.390;2022-07-22T15:19:04;25.79;54.72
57709;SHT35;42558;52.388;13.390;2022-07-22T15:21:31;25.97;54.87
57709;SHT35;42558;52.388;13.390;2022-07-22T15:23:58;25.93;54.73
57709;SHT35;42558;52.388;13.390;2022-07-22T15:26:26;25.89;54.61
57709;SHT35;42558;52.388;13.390;2022-07-22T15:28:53;25.95;55.00
57709;SHT35;42558;52.388;13.390;2022-07-22T15:31:20;25.72;55.25
57709;SHT35;42558;52.388;13.390;2022-07-22T15:33:47;25.68;55.74
57709;SHT35;42558;52.388;13.390;2022-07-22T15:36:16;25.95;55.10
57709;SHT35;42558;52.388;13.390;2022-07-22T15:38:43;26.09;54.31
57709;SHT35;42558;52.388;13.390;2022-07-22T15:41:10;26.34;54.65
57709;SHT35;42558;52.388;13.390;2022-07-22T15:43:39;26.65;53.42
57709;SHT35;42558;52.388;13.390;2022-07-22T15:46:07;26.60;53.51
57709;SHT35;42558;52.388;13.390;2022-07-22T15:48:35;26.51;53.11
57709;SHT35;42558;52.388;13.390;2022-07-22T15:51:02;26.23;53.08